createdAt,value
2018-03-01T00:00:26.614Z,0.00
2018-03-01T00:01:26.667Z,0.00
2018-03-01T00:02:26.630Z,0.00
2018-03-01T00:03:26.644Z,0.00
2018-03-01T00:04:26.692Z,0.00
2018-03-01T00:05:26.696Z,0.00
2018-03-01T00:06:26.676Z,0.00
2018-03-01T00:07:26.711Z,0.00
2018-03-01T00:08:26.727Z,0.00
2018-03-01T00:09:26.737Z,0.00
2018-03-01T00:10:26.748Z,0.00
2018-03-01T00:11:26.755Z,0.00
2018-03-01T00:12:26.780Z,0.00
2018-03-01T00:13:26.817Z,0.00
2018-03-01T00:14:26.797Z,0.00
2018-03-01T00:15:26.809Z,0.00
2018-03-01T00:16:26.830Z,0.00
2018-03-01T00:17:26.925Z,0.00
2018-03-01T00:18:26.849Z,0.00
2018-03-01T00:19:26.865Z,0.00
2018-03-01T00:20:26.868Z,0.00
2018-03-01T00:21:26.911Z,0.00
2018-03-01T00:22:26.917Z,0.00
2018-03-01T00:23:26.924Z,0.00
2018-03-01T00:24:26.930Z,0.00
2018-03-01T00:25:26.936Z,0.00
2018-03-01T00:26:26.947Z,0.00
2018-03-01T00:27:26.965Z,0.00
2018-03-01T00:28:26.977Z,0.00
2018-03-01T00:29:27.011Z,0.00
2018-03-01T00:30:27.016Z,0.00
2018-03-01T00:31:27.035Z,0.00
2018-03-01T00:32:27.030Z,0.00
2018-03-01T00:33:27.051Z,0.00
2018-03-01T00:34:27.151Z,0.00
2018-03-01T00:35:27.072Z,0.00
2018-03-01T00:36:27.127Z,0.00
2018-03-01T00:37:27.124Z,0.00
2018-03-01T00:38:27.125Z,0.00
2018-03-01T00:39:27.170Z,0.00
2018-03-01T00:40:27.169Z,0.00
2018-03-01T00:41:27.181Z,0.00
2018-03-01T00:42:27.183Z,0.00
2018-03-01T00:43:27.205Z,0.00
2018-03-01T00:44:27.238Z,0.00
2018-03-01T00:45:27.215Z,0.00
2018-03-01T00:46:27.285Z,0.00
2018-03-01T00:47:27.238Z,0.00
2018-03-01T00:48:27.254Z,0.00
2018-03-01T00:49:27.274Z,0.00
2018-03-01T00:50:27.272Z,0.00
2018-03-01T00:51:27.290Z,0.00
2018-03-01T00:52:27.355Z,0.00
2018-03-01T00:53:27.348Z,0.00
2018-03-01T00:54:27.367Z,0.00
2018-03-01T00:55:27.392Z,0.00
2018-03-01T00:56:27.402Z,0.00
2018-03-01T00:57:27.400Z,0.00
2018-03-01T00:58:27.406Z,0.00
2018-03-01T00:59:27.431Z,0.00
2018-03-01T01:00:27.424Z,0.00
2018-03-01T01:01:27.443Z,0.00
2018-03-01T01:02:28.241Z,0.00
2018-03-01T01:03:27.451Z,0.00
2018-03-01T01:04:27.473Z,0.00
2018-03-01T01:05:27.474Z,0.00
2018-03-01T01:06:27.549Z,0.00
2018-03-01T01:07:27.497Z,0.00
2018-03-01T01:08:27.512Z,0.00
2018-03-01T01:09:27.522Z,0.00
2018-03-01T01:10:27.546Z,0.00
2018-03-01T01:11:27.561Z,0.00
2018-03-01T01:12:27.570Z,0.00
2018-03-01T01:13:27.598Z,0.00
2018-03-01T01:14:27.605Z,0.00
2018-03-01T01:15:27.610Z,0.00
2018-03-01T01:16:27.626Z,0.00
2018-03-01T01:17:27.635Z,0.00
2018-03-01T01:18:27.645Z,0.00
2018-03-01T01:19:27.668Z,0.00
2018-03-01T01:20:27.679Z,0.00
2018-03-01T01:21:27.693Z,0.00
2018-03-01T01:22:27.704Z,0.00
2018-03-01T01:23:27.730Z,0.00
2018-03-01T01:24:27.749Z,0.00
2018-03-01T01:25:27.742Z,0.00
2018-03-01T01:26:27.748Z,0.00
2018-03-01T01:27:27.768Z,0.00
2018-03-01T01:28:27.809Z,0.00
2018-03-01T01:29:27.806Z,0.00
2018-03-01T01:30:27.825Z,0.00
2018-03-01T01:31:27.824Z,0.00
2018-03-01T01:32:27.844Z,0.00
2018-03-01T01:33:27.850Z,0.00
2018-03-01T01:34:27.866Z,0.00
2018-03-01T01:35:27.869Z,0.00
2018-03-01T01:36:27.887Z,0.00
2018-03-01T01:37:27.903Z,0.00
2018-03-01T01:38:27.910Z,0.00
2018-03-01T01:39:27.928Z,0.00
2018-03-01T01:40:27.936Z,0.00
2018-03-01T01:41:27.947Z,0.00
2018-03-01T01:42:27.964Z,0.00
2018-03-01T01:43:27.978Z,0.00
2018-03-01T01:44:27.987Z,0.00
2018-03-01T01:45:28.031Z,0.00
2018-03-01T01:46:28.033Z,0.00
2018-03-01T01:47:28.038Z,0.00
2018-03-01T01:48:28.066Z,0.00
2018-03-01T01:49:28.068Z,0.00
2018-03-01T01:50:28.075Z,0.00
2018-03-01T01:51:28.077Z,0.00
2018-03-01T01:52:28.100Z,0.00
2018-03-01T01:53:28.129Z,0.00
2018-03-01T01:54:28.128Z,0.00
2018-03-01T01:55:28.132Z,0.00
2018-03-01T01:56:28.140Z,0.00
2018-03-01T01:57:28.161Z,0.00
2018-03-01T01:58:28.169Z,0.00
2018-03-01T01:59:28.180Z,0.00
2018-03-01T02:00:28.192Z,0.00
2018-03-01T02:01:28.223Z,0.00
2018-03-01T02:02:28.231Z,0.00
2018-03-01T02:03:28.235Z,0.00
2018-03-01T02:04:28.249Z,0.00
2018-03-01T02:05:28.270Z,0.00
2018-03-01T02:06:28.289Z,0.00
2018-03-01T02:07:28.292Z,0.00
2018-03-01T02:08:28.324Z,0.00
2018-03-01T02:09:28.321Z,0.00
2018-03-01T02:10:28.355Z,0.00
2018-03-01T02:11:28.351Z,0.00
2018-03-01T02:12:28.360Z,0.00
2018-03-01T02:13:28.373Z,0.00
2018-03-01T02:14:28.431Z,0.00
2018-03-01T02:15:28.392Z,0.00
2018-03-01T02:16:28.406Z,0.00
2018-03-01T02:17:28.425Z,0.00
2018-03-01T02:18:28.448Z,0.00
2018-03-01T02:19:28.448Z,0.00
2018-03-01T02:20:28.470Z,0.00
2018-03-01T02:21:28.482Z,0.00
2018-03-01T02:22:28.486Z,0.00
2018-03-01T02:23:28.499Z,0.00
2018-03-01T02:24:28.516Z,0.00
2018-03-01T02:25:28.525Z,0.00
2018-03-01T02:26:28.548Z,0.00
2018-03-01T02:27:28.556Z,0.00
2018-03-01T02:28:28.618Z,0.00
2018-03-01T02:29:28.592Z,0.00
2018-03-01T02:30:28.591Z,0.00
2018-03-01T02:31:28.612Z,0.00
2018-03-01T02:32:28.624Z,0.00
2018-03-01T02:33:28.634Z,0.00
2018-03-01T02:34:28.649Z,0.00
2018-03-01T02:35:28.670Z,0.00
2018-03-01T02:36:28.700Z,0.00
2018-03-01T02:37:28.687Z,0.00
2018-03-01T02:38:28.710Z,0.00
2018-03-01T02:39:28.719Z,0.00
2018-03-01T02:40:28.741Z,0.00
2018-03-01T02:41:28.740Z,0.00
2018-03-01T02:42:28.747Z,0.00
2018-03-01T02:43:28.759Z,0.00
2018-03-01T02:44:28.784Z,0.00
2018-03-01T02:45:28.813Z,0.00
2018-03-01T02:46:28.800Z,0.00
2018-03-01T02:47:28.811Z,0.00
2018-03-01T02:48:28.823Z,0.00
2018-03-01T02:49:28.839Z,0.00
2018-03-01T02:50:28.849Z,0.00
2018-03-01T02:51:29.702Z,0.00
2018-03-01T02:52:28.871Z,0.00
2018-03-01T02:53:28.898Z,0.00
2018-03-01T02:54:28.909Z,0.00
2018-03-01T02:55:28.936Z,0.00
2018-03-01T02:56:28.939Z,0.00
2018-03-01T02:57:28.941Z,0.00
2018-03-01T02:58:29.044Z,0.00
2018-03-01T02:59:28.972Z,0.00
2018-03-01T03:00:28.979Z,0.00
2018-03-01T03:01:29.014Z,0.00
2018-03-01T03:02:29.010Z,0.00
2018-03-01T03:03:29.021Z,0.00
2018-03-01T03:04:29.028Z,0.00
2018-03-01T03:05:29.044Z,0.00
2018-03-01T03:06:29.152Z,0.00
2018-03-01T03:07:29.073Z,0.00
2018-03-01T03:08:29.107Z,0.00
2018-03-01T03:09:29.120Z,0.00
2018-03-01T03:10:29.123Z,0.00
2018-03-01T03:11:29.176Z,0.00
2018-03-01T03:12:29.155Z,0.00
2018-03-01T03:13:29.154Z,0.00
2018-03-01T03:14:29.164Z,0.00
2018-03-01T03:15:29.168Z,0.00
2018-03-01T03:16:29.193Z,0.00
2018-03-01T03:17:29.204Z,0.00
2018-03-01T03:18:29.208Z,0.00
2018-03-01T03:19:29.216Z,0.00
2018-03-01T03:20:29.246Z,0.00
2018-03-01T03:21:29.369Z,0.00
2018-03-01T03:22:29.262Z,0.00
2018-03-01T03:23:29.331Z,0.00
2018-03-01T03:24:29.293Z,0.00
2018-03-01T03:25:29.301Z,0.00
2018-03-01T03:26:29.328Z,0.00
2018-03-01T03:27:29.334Z,0.00
2018-03-01T03:28:29.352Z,0.00
2018-03-01T03:29:29.361Z,0.00
2018-03-01T03:30:29.369Z,0.00
2018-03-01T03:31:29.391Z,0.00
2018-03-01T03:32:29.404Z,0.00
2018-03-01T03:33:29.407Z,0.00
2018-03-01T03:34:29.420Z,0.00
2018-03-01T03:35:29.440Z,0.00
2018-03-01T03:36:29.471Z,0.00
2018-03-01T03:37:29.454Z,0.00
2018-03-01T03:38:29.546Z,0.00
2018-03-01T03:39:29.475Z,0.00
2018-03-01T03:40:29.492Z,0.00
2018-03-01T03:41:29.503Z,0.00
2018-03-01T03:42:29.525Z,0.00
2018-03-01T03:43:29.554Z,0.00
2018-03-01T03:44:29.570Z,0.00
2018-03-01T03:45:29.555Z,0.00
2018-03-01T03:46:29.584Z,0.00
2018-03-01T03:47:29.587Z,0.00
2018-03-01T03:48:29.625Z,0.00
2018-03-01T03:49:29.621Z,0.00
2018-03-01T03:50:29.632Z,0.00
2018-03-01T03:51:29.650Z,0.00
2018-03-01T03:52:29.655Z,0.00
2018-03-01T03:53:29.671Z,0.00
2018-03-01T03:54:29.667Z,0.00
2018-03-01T03:55:29.717Z,0.00
2018-03-01T03:56:29.701Z,0.00
2018-03-01T03:57:29.716Z,0.00
2018-03-01T03:58:29.742Z,0.00
2018-03-01T03:59:29.744Z,0.00
2018-03-01T04:00:29.763Z,0.00
2018-03-01T04:01:29.769Z,0.00
2018-03-01T04:02:29.819Z,0.00
2018-03-01T04:03:29.800Z,0.00
2018-03-01T04:04:29.801Z,0.00
2018-03-01T04:05:29.817Z,0.00
2018-03-01T04:06:29.846Z,0.00
2018-03-01T04:07:29.836Z,0.00
2018-03-01T04:08:29.862Z,0.00
2018-03-01T04:09:29.868Z,0.00
2018-03-01T04:10:29.880Z,0.00
2018-03-01T04:11:29.895Z,0.00
2018-03-01T04:12:29.902Z,0.00
2018-03-01T04:13:29.915Z,0.00
2018-03-01T04:14:29.951Z,0.00
2018-03-01T04:15:29.944Z,0.00
2018-03-01T04:16:29.957Z,0.00
2018-03-01T04:17:29.973Z,0.00
2018-03-01T04:18:29.977Z,0.00
2018-03-01T04:19:30.020Z,0.00
2018-03-01T04:20:30.015Z,0.00
2018-03-01T04:21:30.041Z,0.00
2018-03-01T04:22:30.061Z,0.00
2018-03-01T04:23:30.084Z,0.00
2018-03-01T04:24:30.072Z,0.00
2018-03-01T04:25:30.101Z,0.00
2018-03-01T04:26:30.095Z,0.00
2018-03-01T04:27:30.096Z,0.00
2018-03-01T04:28:30.219Z,0.00
2018-03-01T04:29:30.150Z,0.00
2018-03-01T04:30:30.160Z,0.00
2018-03-01T04:31:30.275Z,0.00
2018-03-01T04:32:30.177Z,0.00
2018-03-01T04:33:30.253Z,0.00
2018-03-01T04:34:30.252Z,0.00
2018-03-01T04:35:30.200Z,0.00
2018-03-01T04:36:30.248Z,0.00
2018-03-01T04:37:30.258Z,0.00
2018-03-01T04:38:30.274Z,0.00
2018-03-01T04:39:30.269Z,0.00
2018-03-01T04:40:30.290Z,0.00
2018-03-01T04:41:30.313Z,0.00
2018-03-01T04:42:30.349Z,0.00
2018-03-01T04:43:30.352Z,0.00
2018-03-01T04:44:30.358Z,0.00
2018-03-01T04:45:30.365Z,0.00
2018-03-01T04:46:30.363Z,0.00
2018-03-01T04:47:30.370Z,0.00
2018-03-01T04:48:30.380Z,0.00
2018-03-01T04:49:30.385Z,0.00
2018-03-01T04:50:30.445Z,0.00
2018-03-01T04:51:30.416Z,0.00
2018-03-01T04:52:30.441Z,0.00
2018-03-01T04:53:30.432Z,0.00
2018-03-01T04:54:30.443Z,0.00
2018-03-01T04:55:30.468Z,0.00
2018-03-01T04:56:30.514Z,0.00
2018-03-01T04:57:30.501Z,0.00
2018-03-01T04:58:30.513Z,0.00
2018-03-01T04:59:30.541Z,0.00
2018-03-01T05:00:30.527Z,0.00
2018-03-01T05:01:30.539Z,0.00
2018-03-01T05:02:30.557Z,0.00
2018-03-01T05:03:30.564Z,0.00
2018-03-01T05:04:30.588Z,0.00
2018-03-01T05:05:30.585Z,0.00
2018-03-01T05:06:30.597Z,0.00
2018-03-01T05:07:30.606Z,0.00
2018-03-01T05:08:30.632Z,0.00
2018-03-01T05:09:30.634Z,0.00
2018-03-01T05:10:30.645Z,0.00
2018-03-01T05:11:30.658Z,0.00
2018-03-01T05:12:30.670Z,0.00
2018-03-01T05:13:30.672Z,0.00
2018-03-01T05:14:30.720Z,0.00
2018-03-01T05:15:30.728Z,0.00
2018-03-01T05:16:30.731Z,0.00
2018-03-01T05:17:30.725Z,0.00
2018-03-01T05:18:30.752Z,0.00
2018-03-01T05:19:30.746Z,0.00
2018-03-01T05:20:30.762Z,0.00
2018-03-01T05:21:30.789Z,0.00
2018-03-01T05:22:30.796Z,0.00
2018-03-01T05:23:30.797Z,0.00
2018-03-01T05:24:30.815Z,0.00
2018-03-01T05:25:30.851Z,0.00
2018-03-01T05:26:30.909Z,0.00
2018-03-01T05:27:30.854Z,4.00
2018-03-01T05:28:30.863Z,0.00
2018-03-01T05:29:30.880Z,0.00
2018-03-01T05:30:30.887Z,4.00
2018-03-01T05:31:30.902Z,0.00
2018-03-01T05:32:30.909Z,4.00
2018-03-01T05:33:30.955Z,0.00
2018-03-01T05:34:30.957Z,4.00
2018-03-01T05:35:30.954Z,4.00
2018-03-01T05:36:30.965Z,4.00
2018-03-01T05:37:31.049Z,4.00
2018-03-01T05:38:31.003Z,4.00
2018-03-01T05:39:31.004Z,8.00
2018-03-01T05:40:31.050Z,8.00
2018-03-01T05:41:31.035Z,8.00
2018-03-01T05:42:31.049Z,12.00
2018-03-01T05:43:31.057Z,12.00
2018-03-01T05:44:31.070Z,16.00
2018-03-01T05:45:31.078Z,16.00
2018-03-01T05:46:31.091Z,20.00
2018-03-01T05:47:31.102Z,20.00
2018-03-01T05:48:31.116Z,24.00
2018-03-01T05:49:31.129Z,28.00
2018-03-01T05:50:31.137Z,28.00
2018-03-01T05:51:31.166Z,36.00
2018-03-01T05:52:31.164Z,40.00
2018-03-01T05:53:31.187Z,44.00
2018-03-01T05:54:31.184Z,44.00
2018-03-01T05:55:31.244Z,52.00
2018-03-01T05:56:31.228Z,56.00
2018-03-01T05:57:31.235Z,60.00
2018-03-01T05:58:31.241Z,64.00
2018-03-01T05:59:31.251Z,72.00
2018-03-01T06:00:31.269Z,76.00
2018-03-01T06:01:31.278Z,84.00
2018-03-01T06:02:31.292Z,88.00
2018-03-01T06:03:31.302Z,96.00
2018-03-01T06:04:31.311Z,100.00
2018-03-01T06:05:31.321Z,108.00
2018-03-01T06:06:31.334Z,116.00
2018-03-01T06:07:31.365Z,124.00
2018-03-01T06:08:31.374Z,128.00
2018-03-01T06:09:31.369Z,136.00
2018-03-01T06:10:31.380Z,148.00
2018-03-01T06:11:31.397Z,152.00
2018-03-01T06:12:31.436Z,160.00
2018-03-01T06:13:31.419Z,168.00
2018-03-01T06:14:31.430Z,176.00
2018-03-01T06:15:31.573Z,184.00
2018-03-01T06:16:31.470Z,196.00
2018-03-01T06:17:31.484Z,200.00
2018-03-01T06:18:32.407Z,212.00
2018-03-01T06:19:31.493Z,220.00
2018-03-01T06:20:31.508Z,228.00
2018-03-01T06:21:31.522Z,240.00
2018-03-01T06:22:31.551Z,248.00
2018-03-01T06:23:31.545Z,260.00
2018-03-01T06:24:31.562Z,272.00
2018-03-01T06:25:31.567Z,276.00
2018-03-01T06:26:31.587Z,288.00
2018-03-01T06:27:31.602Z,300.00
2018-03-01T06:28:31.607Z,304.00
2018-03-01T06:29:31.632Z,316.00
2018-03-01T06:30:31.637Z,324.00
2018-03-01T06:31:31.640Z,336.00
2018-03-01T06:32:31.659Z,344.00
2018-03-01T06:33:31.667Z,352.00
2018-03-01T06:34:31.676Z,364.00
2018-03-01T06:35:31.687Z,368.00
2018-03-01T06:36:31.705Z,384.00
2018-03-01T06:37:31.711Z,396.00
2018-03-01T06:38:31.732Z,400.00
2018-03-01T06:39:31.741Z,412.00
2018-03-01T06:40:31.753Z,424.00
2018-03-01T06:41:31.769Z,432.00
2018-03-01T06:42:31.809Z,448.00
2018-03-01T06:43:31.800Z,452.00
2018-03-01T06:44:31.858Z,460.00
2018-03-01T06:45:31.837Z,472.00
2018-03-01T06:46:31.826Z,480.00
2018-03-01T06:47:31.848Z,488.00
2018-03-01T06:48:31.850Z,496.00
2018-03-01T06:49:31.860Z,504.00
2018-03-01T06:50:31.872Z,516.00
2018-03-01T06:51:31.897Z,528.00
2018-03-01T06:52:31.903Z,536.00
2018-03-01T06:53:31.915Z,544.00
2018-03-01T06:54:31.929Z,552.00
2018-03-01T06:55:31.933Z,556.00
2018-03-01T06:56:31.947Z,564.00
2018-03-01T06:57:31.961Z,576.00
2018-03-01T06:58:31.977Z,584.00
2018-03-01T06:59:31.985Z,592.00
2018-03-01T07:00:32.020Z,600.00
2018-03-01T07:01:32.014Z,608.00
2018-03-01T07:02:32.025Z,624.00
2018-03-01T07:03:32.032Z,628.00
2018-03-01T07:04:32.043Z,636.00
2018-03-01T07:05:32.076Z,652.00
2018-03-01T07:06:32.082Z,656.00
2018-03-01T07:07:32.080Z,664.00
2018-03-01T07:08:32.127Z,668.00
2018-03-01T07:09:32.117Z,672.00
2018-03-01T07:10:32.123Z,692.00
2018-03-01T07:11:32.168Z,692.00
2018-03-01T07:12:32.148Z,712.00
2018-03-01T07:13:32.155Z,712.00
2018-03-01T07:14:32.167Z,724.00
2018-03-01T07:15:32.188Z,728.00
2018-03-01T07:16:32.195Z,732.00
2018-03-01T07:17:32.201Z,752.00
2018-03-01T07:18:32.215Z,760.00
2018-03-01T07:19:32.234Z,776.00
2018-03-01T07:20:32.241Z,756.00
2018-03-01T07:21:32.259Z,772.00
2018-03-01T07:22:32.290Z,796.00
2018-03-01T07:23:32.277Z,796.00
2018-03-01T07:24:32.287Z,800.00
2018-03-01T07:25:32.300Z,856.00
2018-03-01T07:26:32.312Z,832.00
2018-03-01T07:27:32.333Z,844.00
2018-03-01T07:28:32.343Z,848.00
2018-03-01T07:29:32.357Z,868.00
2018-03-01T07:30:32.367Z,868.00
2018-03-01T07:31:32.380Z,876.00
2018-03-01T07:32:32.398Z,900.00
2018-03-01T07:33:32.398Z,896.00
2018-03-01T07:34:32.420Z,920.00
2018-03-01T07:35:32.422Z,912.00
2018-03-01T07:36:32.433Z,936.00
2018-03-01T07:37:32.453Z,948.00
2018-03-01T07:38:32.464Z,944.00
2018-03-01T07:39:32.477Z,944.00
2018-03-01T07:40:32.494Z,948.00
2018-03-01T07:41:32.509Z,972.00
2018-03-01T07:42:32.513Z,1000.00
2018-03-01T07:43:32.524Z,1012.00
2018-03-01T07:44:32.545Z,1012.00
2018-03-01T07:45:32.551Z,1044.00
2018-03-01T07:46:32.573Z,1080.00
2018-03-01T07:47:32.586Z,1084.00
2018-03-01T07:48:32.590Z,1120.00
2018-03-01T07:49:32.605Z,1124.00
2018-03-01T07:50:32.631Z,1112.00
2018-03-01T07:51:32.627Z,1160.00
2018-03-01T07:52:32.637Z,1156.00
2018-03-01T07:53:32.647Z,1128.00
2018-03-01T07:54:32.668Z,1144.00
2018-03-01T07:55:32.678Z,1140.00
2018-03-01T07:56:32.690Z,1136.00
2018-03-01T07:57:32.695Z,1116.00
2018-03-01T07:58:32.707Z,1164.00
2018-03-01T07:59:32.747Z,1172.00
2018-03-01T08:00:32.753Z,1180.00
2018-03-01T08:01:32.751Z,1240.00
2018-03-01T08:02:32.758Z,1228.00
2018-03-01T08:03:32.772Z,1212.00
2018-03-01T08:04:32.798Z,1260.00
2018-03-01T08:05:32.802Z,1220.00
2018-03-01T08:06:32.808Z,1236.00
2018-03-01T08:07:32.835Z,1260.00
2018-03-01T08:08:32.846Z,1256.00
2018-03-01T08:09:32.852Z,1280.00
2018-03-01T08:10:32.875Z,1288.00
2018-03-01T08:11:32.880Z,1316.00
2018-03-01T08:12:32.884Z,1344.00
2018-03-01T08:13:32.927Z,1340.00
2018-03-01T08:14:32.912Z,1348.00
2018-03-01T08:15:32.923Z,1352.00
2018-03-01T08:16:33.047Z,1372.00
2018-03-01T08:17:32.954Z,1344.00
2018-03-01T08:18:32.960Z,1432.00
2018-03-01T08:19:32.985Z,1368.00
2018-03-01T08:20:33.005Z,1400.00
2018-03-01T08:21:33.003Z,1384.00
2018-03-01T08:22:33.011Z,1436.00
2018-03-01T08:23:33.026Z,1420.00
2018-03-01T08:24:33.039Z,1472.00
2018-03-01T08:25:33.070Z,1492.00
2018-03-01T08:26:33.085Z,1452.00
2018-03-01T08:27:33.078Z,1448.00
2018-03-01T08:28:33.102Z,1448.00
2018-03-01T08:29:33.106Z,1500.00
2018-03-01T08:30:33.131Z,1440.00
2018-03-01T08:31:33.142Z,1492.00
2018-03-01T08:32:33.138Z,1516.00
2018-03-01T08:33:33.645Z,1504.00
2018-03-01T08:34:33.164Z,1484.00
2018-03-01T08:35:33.173Z,1432.00
2018-03-01T08:36:33.188Z,1848.00
2018-03-01T08:37:33.212Z,1580.00
2018-03-01T08:38:33.217Z,1584.00
2018-03-01T08:39:33.225Z,1728.00
2018-03-01T08:40:33.239Z,1532.00
2018-03-01T08:41:33.266Z,1824.00
2018-03-01T08:42:33.259Z,1772.00
2018-03-01T08:43:33.294Z,1660.00
2018-03-01T08:44:33.299Z,1568.00
2018-03-01T08:45:33.306Z,2160.00
2018-03-01T08:46:33.320Z,1732.00
2018-03-01T08:47:33.327Z,1712.00
2018-03-01T08:48:34.144Z,1840.00
2018-03-01T08:49:33.351Z,1788.00
2018-03-01T08:50:33.375Z,1808.00
2018-03-01T08:51:33.430Z,1764.00
2018-03-01T08:52:33.391Z,1776.00
2018-03-01T08:53:33.407Z,1840.00
2018-03-01T08:54:33.412Z,1904.00
2018-03-01T08:55:33.439Z,1880.00
2018-03-01T08:56:33.450Z,1828.00
2018-03-01T08:57:33.454Z,1824.00
2018-03-01T08:58:33.465Z,1820.00
2018-03-01T08:59:33.479Z,2008.00
2018-03-01T09:00:33.488Z,1800.00
2018-03-01T09:01:34.140Z,1776.00
2018-03-01T09:02:33.524Z,2032.00
2018-03-01T09:03:33.552Z,1836.00
2018-03-01T09:04:33.546Z,1816.00
2018-03-01T09:05:33.556Z,1964.00
2018-03-01T09:06:33.577Z,2024.00
2018-03-01T09:07:33.597Z,2044.00
2018-03-01T09:08:33.602Z,2060.00
2018-03-01T09:09:33.617Z,2056.00
2018-03-01T09:10:33.623Z,2152.00
2018-03-01T09:11:33.636Z,2132.00
2018-03-01T09:12:33.664Z,2152.00
2018-03-01T09:13:33.674Z,2088.00
2018-03-01T09:14:33.665Z,2184.00
2018-03-01T09:15:33.685Z,2132.00
2018-03-01T09:16:33.699Z,2060.00
2018-03-01T09:17:33.704Z,2192.00
2018-03-01T09:18:33.824Z,2212.00
2018-03-01T09:19:33.734Z,2192.00
2018-03-01T09:20:33.825Z,2192.00
2018-03-01T09:21:33.764Z,2168.00
2018-03-01T09:22:33.769Z,2216.00
2018-03-01T09:23:33.787Z,2200.00
2018-03-01T09:24:33.814Z,2268.00
2018-03-01T09:25:33.834Z,2328.00
2018-03-01T09:26:33.831Z,2396.00
2018-03-01T09:27:33.839Z,2496.00
2018-03-01T09:28:33.847Z,2564.00
2018-03-01T09:29:33.870Z,2576.00
2018-03-01T09:30:33.924Z,2648.00
2018-03-01T09:31:33.887Z,2756.00
2018-03-01T09:32:33.911Z,2892.00
2018-03-01T09:33:33.923Z,2996.00
2018-03-01T09:34:33.933Z,3072.00
2018-03-01T09:35:33.959Z,3168.00
2018-03-01T09:36:33.984Z,3280.00
2018-03-01T09:37:33.966Z,3436.00
2018-03-01T09:38:33.987Z,3540.00
2018-03-01T09:39:33.993Z,3600.00
2018-03-01T09:40:34.005Z,3704.00
2018-03-01T09:41:34.019Z,3924.00
2018-03-01T09:42:34.035Z,4124.00
2018-03-01T09:43:34.055Z,4240.00
2018-03-01T09:44:34.061Z,4488.00
2018-03-01T09:45:34.072Z,4564.00
2018-03-01T09:46:34.087Z,4648.00
2018-03-01T09:47:34.095Z,4652.00
2018-03-01T09:48:34.127Z,4660.00
2018-03-01T09:49:34.131Z,4648.00
2018-03-01T09:50:34.159Z,4960.00
2018-03-01T09:51:34.157Z,4944.00
2018-03-01T09:52:34.169Z,4900.00
2018-03-01T09:53:34.184Z,4952.00
2018-03-01T09:54:34.194Z,5080.00
2018-03-01T09:55:34.205Z,5224.00
2018-03-01T09:56:34.222Z,5248.00
2018-03-01T09:57:34.270Z,5468.00
2018-03-01T09:58:34.245Z,5652.00
2018-03-01T09:59:34.282Z,5904.00
2018-03-01T10:00:34.280Z,6300.00
2018-03-01T10:01:34.288Z,6600.00
2018-03-01T10:02:34.301Z,7544.00
2018-03-01T10:03:34.318Z,23904.00
2018-03-01T10:04:34.340Z,49760.00
2018-03-01T10:05:34.346Z,56960.00
2018-03-01T10:06:34.359Z,57152.00
2018-03-01T10:07:34.380Z,55488.00
2018-03-01T10:08:34.390Z,53568.00
2018-03-01T10:09:34.404Z,55808.00
2018-03-01T10:10:34.465Z,55200.00
2018-03-01T10:11:34.436Z,50304.00
2018-03-01T10:12:34.469Z,51232.00
2018-03-01T10:13:34.475Z,54752.00
2018-03-01T10:14:34.486Z,49920.00
2018-03-01T10:15:34.506Z,50112.00
2018-03-01T10:16:34.528Z,46912.00
2018-03-01T10:17:34.552Z,50976.00
2018-03-01T10:18:34.564Z,57440.00
2018-03-01T10:19:34.586Z,55648.00
2018-03-01T10:20:34.606Z,53216.00
2018-03-01T10:21:34.631Z,53056.00
2018-03-01T10:22:34.641Z,53440.00
2018-03-01T10:23:34.670Z,52736.00
2018-03-01T10:24:34.694Z,53312.00
2018-03-01T10:25:34.718Z,51872.00
2018-03-01T10:26:34.728Z,56000.00
2018-03-01T10:27:34.755Z,54784.00
2018-03-01T10:28:34.793Z,51072.00
2018-03-01T10:29:34.801Z,47168.00
2018-03-01T10:30:34.833Z,50784.00
2018-03-01T10:31:34.847Z,52032.00
2018-03-01T10:32:34.876Z,53728.00
2018-03-01T10:33:34.898Z,54432.00
2018-03-01T10:34:34.935Z,56704.00
2018-03-01T10:35:34.952Z,55296.00
2018-03-01T10:36:34.980Z,55232.00
2018-03-01T10:37:35.012Z,56544.00
2018-03-01T10:38:35.037Z,55456.00
2018-03-01T10:39:35.049Z,55232.00
2018-03-01T10:40:35.093Z,49632.00
2018-03-01T10:41:35.130Z,46112.00
2018-03-01T10:42:35.180Z,53344.00
2018-03-01T10:43:35.168Z,54592.00
2018-03-01T10:44:35.181Z,51872.00
2018-03-01T10:45:35.215Z,54624.00
2018-03-01T10:46:35.234Z,53504.00
2018-03-01T10:47:35.273Z,51456.00
2018-03-01T10:48:35.293Z,52288.00
2018-03-01T10:49:35.318Z,54976.00
2018-03-01T10:50:35.349Z,52800.00
2018-03-01T10:51:35.396Z,52608.00
2018-03-01T10:52:35.412Z,54912.00
2018-03-01T10:53:35.462Z,53952.00
2018-03-01T10:54:35.478Z,55104.00
2018-03-01T10:55:35.492Z,59456.00
2018-03-01T10:56:35.526Z,59776.00
2018-03-01T10:57:35.560Z,60768.00
2018-03-01T10:58:35.584Z,62304.00
2018-03-01T10:59:35.633Z,59712.00
2018-03-01T11:00:36.151Z,59072.00
2018-03-01T11:01:35.672Z,59168.00
2018-03-01T11:02:35.718Z,56992.00
2018-03-01T11:03:35.726Z,59648.00
2018-03-01T11:04:35.765Z,58464.00
2018-03-01T11:05:35.790Z,58912.00
2018-03-01T11:06:35.831Z,58528.00
2018-03-01T11:07:35.853Z,56128.00
2018-03-01T11:08:35.886Z,57216.00
2018-03-01T11:09:35.913Z,60352.00
2018-03-01T11:10:35.990Z,56384.00
2018-03-01T11:11:35.982Z,54112.00
2018-03-01T11:12:36.004Z,54944.00
2018-03-01T11:13:36.035Z,52992.00
2018-03-01T11:14:36.062Z,49696.00
2018-03-01T11:15:36.089Z,53760.00
2018-03-01T11:16:36.128Z,53280.00
2018-03-01T11:17:36.160Z,45760.00
2018-03-01T11:18:36.184Z,40672.00
2018-03-01T11:19:36.212Z,40576.00
2018-03-01T11:20:36.242Z,36256.00
2018-03-01T11:21:36.270Z,35296.00
2018-03-01T11:22:36.301Z,32928.00
2018-03-01T11:23:36.334Z,26784.00
2018-03-01T11:24:36.356Z,26144.00
2018-03-01T11:25:36.390Z,25984.00
2018-03-01T11:26:36.426Z,24352.00
2018-03-01T11:27:36.448Z,29504.00
2018-03-01T11:28:36.476Z,26944.00
2018-03-01T11:29:36.508Z,34464.00
2018-03-01T11:30:36.543Z,32544.00
2018-03-01T11:31:36.566Z,33760.00
2018-03-01T11:32:36.600Z,33888.00
2018-03-01T11:33:36.630Z,32864.00
2018-03-01T11:34:36.668Z,36320.00
2018-03-01T11:35:36.689Z,40416.00
2018-03-01T11:36:36.733Z,30144.00
2018-03-01T11:37:36.751Z,35552.00
2018-03-01T11:38:36.791Z,25408.00
2018-03-01T11:39:36.798Z,11756.00
2018-03-01T11:40:36.833Z,17856.00
2018-03-01T11:41:36.859Z,16384.00
2018-03-01T11:42:36.897Z,28800.00
2018-03-01T11:43:36.920Z,17536.00
2018-03-01T11:44:36.941Z,20032.00
2018-03-01T11:45:36.979Z,28128.00
2018-03-01T11:46:37.003Z,30240.00
2018-03-01T11:47:37.027Z,40832.00
2018-03-01T11:48:37.058Z,40288.00
2018-03-01T11:49:37.076Z,29632.00
2018-03-01T11:50:37.110Z,28960.00
2018-03-01T11:51:37.664Z,31744.00
2018-03-01T11:52:37.163Z,32992.00
2018-03-01T11:53:37.232Z,28160.00
2018-03-01T11:54:37.212Z,31616.00
2018-03-01T11:55:37.254Z,30720.00
2018-03-01T11:56:37.278Z,43232.00
2018-03-01T11:57:37.294Z,48000.00
2018-03-01T11:58:37.331Z,48768.00
2018-03-01T11:59:37.351Z,50720.00
2018-03-01T12:00:37.380Z,51808.00
2018-03-01T12:01:37.417Z,38080.00
2018-03-01T12:02:37.430Z,33216.00
2018-03-01T12:03:37.459Z,48640.00
2018-03-01T12:04:37.486Z,47936.00
2018-03-01T12:05:37.504Z,46112.00
2018-03-01T12:06:37.535Z,45696.00
2018-03-01T12:07:37.583Z,44576.00
2018-03-01T12:08:37.606Z,46752.00
2018-03-01T12:09:37.633Z,48256.00
2018-03-01T12:10:37.675Z,46496.00
2018-03-01T12:11:37.692Z,44320.00
2018-03-01T12:12:37.705Z,48960.00
2018-03-01T12:13:37.816Z,48736.00
2018-03-01T12:14:37.769Z,47616.00
2018-03-01T12:15:37.797Z,46144.00
2018-03-01T12:16:37.826Z,42464.00
2018-03-01T12:17:37.858Z,46592.00
2018-03-01T12:18:37.887Z,45184.00
2018-03-01T12:19:37.908Z,41376.00
2018-03-01T12:20:37.944Z,43200.00
2018-03-01T12:21:37.976Z,41568.00
2018-03-01T12:22:37.993Z,40576.00
2018-03-01T12:23:38.024Z,41856.00
2018-03-01T12:24:38.066Z,36736.00
2018-03-01T12:25:38.086Z,31360.00
2018-03-01T12:26:38.111Z,12144.00
2018-03-01T12:27:38.154Z,4956.00
2018-03-01T12:28:38.172Z,4080.00
2018-03-01T12:29:38.216Z,3640.00
2018-03-01T12:30:38.232Z,3268.00
2018-03-01T12:31:38.264Z,3140.00
2018-03-01T12:32:38.296Z,3116.00
2018-03-01T12:33:38.311Z,3016.00
2018-03-01T12:34:38.398Z,2912.00
2018-03-01T12:35:38.360Z,2864.00
2018-03-01T12:36:38.388Z,2840.00